Time;durP1;ratioP1;P1;durP2;ratioP2;P2;SDS_P1;SDS_P2;PMS_P1;PMS_P2;Temp;Humidity;BMP_temperature;BMP_pressure;BME280_temperature;BME280_humidity;BME280_pressure;Samples;Min_cycle;Max_cycle;Signal;HPM_P1;HPM_P2
2023/02/10 00:02:21;;;;;;;;;;;2.40;99.90;;;;;;5094420;28;19958;-65
2023/02/10 00:04:47;;;;;;;;;;;2.50;99.90;;;;;;5086266;28;19959;-66
2023/02/10 00:07:12;;;;;;;;;;;2.50;99.90;;;;;;5091261;28;19912;-65
2023/02/10 00:09:37;;;;;;;;;;;2.60;99.90;;;;;;5090704;28;19923;-66
2023/02/10 00:12:03;;;;;;;;;;;2.50;99.90;;;;;;5095275;28;20336;-67
2023/02/10 00:14:29;;;;;;;;;;;2.50;99.90;;;;;;5087875;28;19923;-67
2023/02/10 00:16:55;;;;;;;;;;;2.40;99.90;;;;;;5074690;28;19912;-66
2023/02/10 00:19:22;;;;;;;;;;;2.40;99.90;;;;;;5091847;28;19923;-67
2023/02/10 00:21:47;;;;;;;;;;;2.40;99.90;;;;;;5090488;28;20082;-67
2023/02/10 00:24:13;;;;;;;;;;;2.40;99.90;;;;;;5091060;28;20459;-67
2023/02/10 00:26:38;;;;;;;;;;;2.40;99.90;;;;;;5093368;28;19919;-67
2023/02/10 00:29:04;;;;;;;;;;;2.40;99.90;;;;;;5089827;28;20335;-66
2023/02/10 00:31:29;;;;;;;;;;;2.30;99.90;;;;;;5088523;28;19922;-66
2023/02/10 00:33:55;;;;;;;;;;;2.40;99.90;;;;;;5088414;28;19918;-67
2023/02/10 00:36:21;;;;;;;;;;;2.50;99.90;;;;;;5091942;28;19916;-67
2023/02/10 00:38:47;;;;;;;;;;;2.50;99.90;;;;;;5087938;28;19919;-66
2023/02/10 00:41:14;;;;;;;;;;;2.40;99.90;;;;;;5086050;28;19924;-66
2023/02/10 00:43:39;;;;;;;;;;;2.40;99.90;;;;;;5091544;28;19912;-67
2023/02/10 00:46:05;;;;;;;;;;;2.30;99.90;;;;;;5089596;28;19923;-67
2023/02/10 00:48:31;;;;;;;;;;;2.40;99.90;;;;;;5090354;28;19922;-67
2023/02/10 00:50:56;;;;;;;;;;;2.50;99.90;;;;;;5091225;28;19917;-65
2023/02/10 00:53:22;;;;;;;;;;;2.50;99.90;;;;;;5089799;28;19919;-66
2023/02/10 00:55:47;;;;;;;;;;;2.60;99.90;;;;;;5093424;28;19912;-66
2023/02/10 00:58:13;;;;;;;;;;;2.60;99.90;;;;;;5096751;28;19980;-66
2023/02/10 01:00:38;;;;;;;;;;;2.70;99.90;;;;;;5095460;28;20006;-66
2023/02/10 01:03:04;;;;;;;;;;;2.70;99.90;;;;;;5093324;28;19927;-66
2023/02/10 01:08:10;;;;;;;;;;;2.90;99.90;;;;;;5014840;28;20020;-84
2023/02/10 01:10:35;;;;;;;;;;;3.00;99.90;;;;;;5034369;28;19972;-81
2023/02/10 01:13:01;;;;;;;;;;;3.10;99.90;;;;;;5038270;28;19921;-84
2023/02/10 01:15:27;;;;;;;;;;;3.20;99.90;;;;;;5071383;28;19909;-84
2023/02/10 01:17:52;;;;;;;;;;;3.20;99.90;;;;;;5040247;28;20338;-82
2023/02/10 01:20:18;;;;;;;;;;;3.20;99.90;;;;;;5072029;28;19917;-83
2023/02/10 01:22:43;;;;;;;;;;;3.20;99.90;;;;;;5040233;28;20386;-83
2023/02/10 01:25:09;;;;;;;;;;;3.20;99.90;;;;;;5039431;28;20012;-84
2023/02/10 01:27:34;;;;;;;;;;;3.10;99.90;;;;;;5038424;28;19909;-82
2023/02/10 01:29:59;;;;;;;;;;;3.10;99.90;;;;;;5071532;28;20003;-83
2023/02/10 01:32:25;;;;;;;;;;;3.10;99.90;;;;;;5071983;28;20366;-84
2023/02/10 01:34:50;;;;;;;;;;;3.20;99.90;;;;;;5038435;28;19916;-84
2023/02/10 01:37:16;;;;;;;;;;;3.20;99.90;;;;;;5038310;28;20313;-84
2023/02/10 01:39:41;;;;;;;;;;;3.30;99.90;;;;;;5038876;28;19917;-84
2023/02/10 01:42:08;;;;;;;;;;;3.30;99.90;;;;;;5038673;28;20129;-84
2023/02/10 01:44:34;;;;;;;;;;;3.30;99.90;;;;;;5037909;28;19910;-84
2023/02/10 01:46:59;;;;;;;;;;;3.30;99.90;;;;;;5038484;28;20282;-84
2023/02/10 01:49:30;;;;;;;;;;;3.40;99.90;;;;;;5038364;28;19915;-84
2023/02/10 01:52:14;;;;;;;;;;;3.40;99.90;;;;;;5037874;28;20258;-84
2023/02/10 01:54:44;;;;;;;;;;;3.40;99.90;;;;;;5031642;28;19910;-84
2023/02/10 01:57:10;;;;;;;;;;;3.40;99.90;;;;;;5024745;28;19909;-83
2023/02/10 01:59:36;;;;;;;;;;;3.40;99.90;;;;;;5019409;28;19913;-84
2023/02/10 02:02:06;;;;;;;;;;;3.30;99.90;;;;;;5031656;28;19984;-84
2023/02/10 02:05:01;;;;;;;;;;;3.30;99.90;;;;;;5032228;28;20382;-83
2023/02/10 02:07:28;;;;;;;;;;;3.50;99.90;;;;;;5018480;28;19945;-84
2023/02/10 02:09:55;;;;;;;;;;;3.40;99.90;;;;;;5036283;28;19909;-85
2023/02/10 02:12:23;;;;;;;;;;;3.40;99.90;;;;;;5058187;28;19971;-84
2023/02/10 02:14:56;;;;;;;;;;;3.50;99.90;;;;;;5036924;28;19936;-82
2023/02/10 02:17:28;;;;;;;;;;;3.40;99.90;;;;;;5038132;28;19909;-82
2023/02/10 02:20:40;;;;;;;;;;;3.50;99.90;;;;;;5035728;28;19913;-82
2023/02/10 02:22:47;;;;;;;;;;;3.40;99.90;;;;;;5037161;28;20159;-84
2023/02/10 02:25:31;;;;;;;;;;;3.60;99.90;;;;;;5036077;28;19952;-83
2023/02/10 02:27:57;;;;;;;;;;;3.60;99.90;;;;;;5035724;28;19913;-84
2023/02/10 02:30:45;;;;;;;;;;;3.60;99.90;;;;;;5036697;28;20372;-85
2023/02/10 02:33:18;;;;;;;;;;;3.60;99.90;;;;;;5028881;28;20329;-84
2023/02/10 02:35:45;;;;;;;;;;;3.70;99.90;;;;;;5036179;28;20421;-84
2023/02/10 02:38:11;;;;;;;;;;;3.80;99.90;;;;;;5036484;28;19909;-84
2023/02/10 02:40:36;;;;;;;;;;;3.80;99.90;;;;;;5037955;28;19913;-85
2023/02/10 02:43:02;;;;;;;;;;;3.80;99.90;;;;;;5036004;28;19909;-84
2023/02/10 02:45:50;;;;;;;;;;;3.90;99.90;;;;;;5037816;28;19920;-85
2023/02/10 02:48:21;;;;;;;;;;;4.00;99.90;;;;;;5036896;28;20386;-84
2023/02/10 02:51:07;;;;;;;;;;;4.00;99.90;;;;;;5036171;28;19909;-84
2023/02/10 02:53:41;;;;;;;;;;;4.00;99.90;;;;;;5035571;28;20297;-84
2023/02/10 02:56:25;;;;;;;;;;;4.00;99.90;;;;;;5037207;28;19952;-83
2023/02/10 02:58:54;;;;;;;;;;;3.90;99.90;;;;;;5035795;28;19928;-84
2023/02/10 03:01:31;;;;;;;;;;;4.00;99.90;;;;;;5036860;28;19913;-84
2023/02/10 03:03:57;;;;;;;;;;;4.00;99.90;;;;;;5035740;28;19944;-85
2023/02/10 03:06:23;;;;;;;;;;;4.00;99.90;;;;;;5035547;28;19932;-82
2023/02/10 03:08:49;;;;;;;;;;;4.00;99.90;;;;;;5036632;28;19967;-85
2023/02/10 03:11:14;;;;;;;;;;;4.00;99.90;;;;;;5035655;28;19913;-84
2023/02/10 03:13:40;;;;;;;;;;;4.00;99.90;;;;;;5035427;28;19916;-84
2023/02/10 03:16:05;;;;;;;;;;;4.00;99.90;;;;;;5035407;28;19909;-84
2023/02/10 03:18:31;;;;;;;;;;;4.00;99.90;;;;;;5036236;28;19909;-83
2023/02/10 03:20:56;;;;;;;;;;;4.10;99.90;;;;;;5036555;28;20463;-85
2023/02/10 03:23:22;;;;;;;;;;;4.00;99.90;;;;;;5036107;28;19976;-82
2023/02/10 03:25:47;;;;;;;;;;;4.00;99.90;;;;;;5035202;28;20003;-82
2023/02/10 03:28:13;;;;;;;;;;;3.90;99.90;;;;;;5034667;28;19915;-84
2023/02/10 03:30:38;;;;;;;;;;;3.90;99.90;;;;;;5036709;28;19948;-84
2023/02/10 03:33:04;;;;;;;;;;;3.90;99.90;;;;;;5041952;28;19909;-83
2023/02/10 03:35:29;;;;;;;;;;;3.80;99.90;;;;;;5050278;28;19940;-83
2023/02/10 03:37:55;;;;;;;;;;;3.80;99.90;;;;;;5036050;28;19909;-82
2023/02/10 03:40:20;;;;;;;;;;;3.80;99.90;;;;;;5035103;28;20003;-84
2023/02/10 03:42:46;;;;;;;;;;;3.90;99.90;;;;;;5035600;28;19909;-82
2023/02/10 03:45:11;;;;;;;;;;;3.80;99.90;;;;;;5032422;28;19913;-84
2023/02/10 03:47:37;;;;;;;;;;;3.70;99.90;;;;;;5035433;28;19909;-84
2023/02/10 03:50:02;;;;;;;;;;;3.80;99.90;;;;;;5043776;28;20014;-84
2023/02/10 03:52:28;;;;;;;;;;;3.80;99.90;;;;;;5035655;28;19913;-84
2023/02/10 03:54:53;;;;;;;;;;;3.70;99.90;;;;;;5052560;28;19959;-84
2023/02/10 03:57:19;;;;;;;;;;;3.50;99.90;;;;;;5026683;28;19945;-84
2023/02/10 03:59:44;;;;;;;;;;;3.40;99.90;;;;;;5036131;28;20008;-84
2023/02/10 04:02:10;;;;;;;;;;;3.30;99.90;;;;;;5043380;28;19909;-84
2023/02/10 04:04:35;;;;;;;;;;;3.20;99.90;;;;;;5035021;28;19909;-82
2023/02/10 04:07:02;;;;;;;;;;;3.00;99.90;;;;;;5027772;28;19909;-84
2023/02/10 04:09:28;;;;;;;;;;;2.90;99.90;;;;;;5033950;28;20410;-83
2023/02/10 04:11:53;;;;;;;;;;;2.70;99.90;;;;;;5034901;28;19940;-83
2023/02/10 04:14:18;;;;;;;;;;;2.60;99.90;;;;;;5041959;28;19992;-81
2023/02/10 04:16:44;;;;;;;;;;;2.50;99.90;;;;;;5033452;28;20376;-82
2023/02/10 04:19:09;;;;;;;;;;;2.40;99.90;;;;;;5038806;28;19909;-83
2023/02/10 04:21:35;;;;;;;;;;;2.40;99.90;;;;;;5038780;28;20016;-80
2023/02/10 04:24:00;;;;;;;;;;;2.50;99.90;;;;;;5026002;28;19931;-82
2023/02/10 04:26:26;;;;;;;;;;;2.60;99.90;;;;;;5051509;28;19959;-83
2023/02/10 04:28:52;;;;;;;;;;;2.60;99.90;;;;;;5033683;28;19909;-82
2023/02/10 04:31:17;;;;;;;;;;;2.60;99.90;;;;;;5035346;28;19915;-82
2023/02/10 04:33:44;;;;;;;;;;;2.50;99.90;;;;;;5034895;28;20354;-84
2023/02/10 04:36:09;;;;;;;;;;;2.40;99.90;;;;;;5031679;28;19910;-84
2023/02/10 04:38:35;;;;;;;;;;;2.40;99.90;;;;;;5030861;28;19920;-83
2023/02/10 04:41:02;;;;;;;;;;;2.20;99.90;;;;;;5033366;28;19917;-84
2023/02/10 04:43:28;;;;;;;;;;;2.00;99.90;;;;;;5033980;28;19917;-83
2023/02/10 04:45:54;;;;;;;;;;;1.90;99.90;;;;;;5036549;28;19921;-84
2023/02/10 04:48:21;;;;;;;;;;;1.80;99.90;;;;;;5030565;28;19909;-84
2023/02/10 04:50:46;;;;;;;;;;;1.70;99.90;;;;;;5039176;28;19909;-84
2023/02/10 04:53:12;;;;;;;;;;;1.60;99.90;;;;;;5039918;28;20325;-83
2023/02/10 04:55:37;;;;;;;;;;;1.60;99.90;;;;;;5031180;28;19925;-81
2023/02/10 04:58:03;;;;;;;;;;;1.40;99.90;;;;;;5030264;28;19909;-83
2023/02/10 05:00:28;;;;;;;;;;;1.30;99.90;;;;;;5039301;28;19913;-83
2023/02/10 05:02:54;;;;;;;;;;;1.20;99.90;;;;;;5036367;28;19916;-83
2023/02/10 05:05:20;;;;;;;;;;;1.30;99.90;;;;;;5051692;28;19913;-83
2023/02/10 05:07:45;;;;;;;;;;;1.30;99.90;;;;;;5059339;23;20375;-60
2023/02/10 05:10:11;;;;;;;;;;;1.30;99.90;;;;;;5061255;28;20340;-64
2023/02/10 05:12:36;;;;;;;;;;;1.40;99.90;;;;;;5052398;28;19913;-62
2023/02/10 05:15:02;;;;;;;;;;;1.30;99.90;;;;;;5052045;28;20011;-60
2023/02/10 05:17:27;;;;;;;;;;;1.10;99.90;;;;;;5063884;28;20266;-63
2023/02/10 05:19:53;;;;;;;;;;;1.10;99.90;;;;;;5071323;28;19920;-64
2023/02/10 05:22:18;;;;;;;;;;;0.90;99.90;;;;;;5069775;28;20313;-64
2023/02/10 05:24:43;;;;;;;;;;;0.80;99.90;;;;;;5067212;28;19998;-65
2023/02/10 05:27:09;;;;;;;;;;;0.70;99.90;;;;;;5067630;28;19919;-65
2023/02/10 05:29:34;;;;;;;;;;;0.60;99.90;;;;;;5065253;28;19919;-65
2023/02/10 05:32:00;;;;;;;;;;;0.60;99.90;;;;;;5069540;28;20328;-64
2023/02/10 05:34:26;;;;;;;;;;;0.70;99.90;;;;;;5065706;28;19912;-64
2023/02/10 05:36:52;;;;;;;;;;;0.60;99.90;;;;;;5063011;28;19913;-64
2023/02/10 05:39:23;;;;;;;;;;;0.70;99.90;;;;;;5068643;28;20008;-63
2023/02/10 05:41:49;;;;;;;;;;;0.60;99.90;;;;;;5068593;28;19926;-64
2023/02/10 05:44:14;;;;;;;;;;;0.60;99.90;;;;;;5069662;28;19912;-64
2023/02/10 05:46:40;;;;;;;;;;;0.50;99.90;;;;;;5067951;28;19955;-64
2023/02/10 05:49:05;;;;;;;;;;;0.50;99.90;;;;;;5063302;28;19921;-64
2023/02/10 05:51:31;;;;;;;;;;;0.40;99.90;;;;;;5066351;28;20385;-63
2023/02/10 05:53:56;;;;;;;;;;;0.40;99.90;;;;;;5058677;28;20441;-62
2023/02/10 05:56:22;;;;;;;;;;;0.40;99.90;;;;;;5057714;28;19916;-62
2023/02/10 05:58:47;;;;;;;;;;;0.30;99.90;;;;;;5060349;28;20374;-64
2023/02/10 06:01:13;;;;;;;;;;;0.40;99.90;;;;;;5061730;28;20370;-64
2023/02/10 06:03:38;;;;;;;;;;;0.40;99.90;;;;;;5063183;28;19942;-64
2023/02/10 06:06:04;;;;;;;;;;;0.40;99.90;;;;;;5061530;28;19912;-63
2023/02/10 06:08:30;;;;;;;;;;;0.30;99.90;;;;;;5069540;28;20007;-64
2023/02/10 06:10:55;;;;;;;;;;;0.30;99.90;;;;;;5071130;28;19916;-64
2023/02/10 06:13:20;;;;;;;;;;;0.10;99.90;;;;;;5067129;28;20360;-63
2023/02/10 06:15:46;;;;;;;;;;;0.10;99.90;;;;;;5064827;28;19939;-64
2023/02/10 06:18:11;;;;;;;;;;;0.00;99.90;;;;;;5067954;28;19924;-64
2023/02/10 06:20:37;;;;;;;;;;;-0.10;99.90;;;;;;5063438;28;20392;-64
2023/02/10 06:23:02;;;;;;;;;;;0.00;99.90;;;;;;5062024;28;19913;-64
2023/02/10 06:25:28;;;;;;;;;;;-0.10;99.90;;;;;;5061613;28;19912;-64
2023/02/10 06:27:53;;;;;;;;;;;0.10;99.90;;;;;;5066726;28;19931;-64
2023/02/10 06:30:19;;;;;;;;;;;0.10;99.90;;;;;;5067045;28;20271;-64
2023/02/10 06:32:44;;;;;;;;;;;0.20;99.90;;;;;;5062071;28;19952;-64
2023/02/10 06:35:10;;;;;;;;;;;0.20;99.90;;;;;;5065153;28;19913;-64
2023/02/10 06:37:35;;;;;;;;;;;0.20;99.90;;;;;;5069349;28;19912;-64
2023/02/10 06:40:02;;;;;;;;;;;0.20;99.90;;;;;;5065611;28;19967;-64
2023/02/10 06:42:27;;;;;;;;;;;0.10;99.90;;;;;;5070177;28;20339;-61
2023/02/10 06:44:53;;;;;;;;;;;0.00;99.90;;;;;;5069412;28;19916;-61
2023/02/10 06:47:18;;;;;;;;;;;0.10;99.90;;;;;;5066013;28;19923;-62
2023/02/10 06:49:44;;;;;;;;;;;0.10;99.90;;;;;;5058305;28;19917;-64
2023/02/10 06:52:09;;;;;;;;;;;0.10;99.90;;;;;;5068871;28;20365;-62
2023/02/10 06:54:34;;;;;;;;;;;0.10;99.90;;;;;;5063884;28;20278;-61
2023/02/10 06:57:00;;;;;;;;;;;0.00;99.90;;;;;;5070385;28;20021;-60
2023/02/10 06:59:25;;;;;;;;;;;0.10;99.90;;;;;;5066430;28;19916;-61
2023/02/10 07:01:53;;;;;;;;;;;0.10;99.90;;;;;;5068418;28;19917;-61
2023/02/10 07:04:19;;;;;;;;;;;0.10;99.90;;;;;;5062999;28;20007;-61
2023/02/10 07:06:44;;;;;;;;;;;0.20;99.90;;;;;;5069565;28;20023;-61
2023/02/10 07:09:10;;;;;;;;;;;0.10;99.90;;;;;;5067481;28;19917;-61
2023/02/10 07:11:35;;;;;;;;;;;0.00;99.90;;;;;;5071679;28;19915;-60
2023/02/10 07:14:01;;;;;;;;;;;-0.10;99.90;;;;;;5066611;28;19944;-60
2023/02/10 07:16:27;;;;;;;;;;;-0.10;99.90;;;;;;5071023;28;20286;-61
2023/02/10 07:18:53;;;;;;;;;;;-0.10;99.90;;;;;;5070775;28;19924;-61
2023/02/10 07:21:18;;;;;;;;;;;-0.10;99.90;;;;;;5068932;28;19921;-61
2023/02/10 07:23:44;;;;;;;;;;;-0.20;99.90;;;;;;5070716;28;19912;-60
2023/02/10 07:26:10;;;;;;;;;;;-0.10;99.90;;;;;;5069533;28;19915;-60
2023/02/10 07:28:35;;;;;;;;;;;-0.20;99.90;;;;;;5059538;28;20433;-60
2023/02/10 07:31:01;;;;;;;;;;;0.00;99.90;;;;;;5066672;28;19916;-60
2023/02/10 07:33:28;;;;;;;;;;;0.00;99.90;;;;;;5063742;28;19909;-61
2023/02/10 07:35:53;;;;;;;;;;;0.00;99.90;;;;;;5069283;28;19947;-61
2023/02/10 07:38:19;;;;;;;;;;;0.00;99.90;;;;;;5065355;28;19944;-61
2023/02/10 07:40:45;;;;;;;;;;;0.00;99.90;;;;;;5070394;28;19917;-61
2023/02/10 07:43:10;;;;;;;;;;;0.10;99.90;;;;;;5066101;28;19931;-61
2023/02/10 07:45:36;;;;;;;;;;;0.20;99.90;;;;;;5065737;28;19912;-61
2023/02/10 07:48:01;;;;;;;;;;;0.10;99.90;;;;;;5067195;28;19955;-53
2023/02/10 07:50:27;;;;;;;;;;;0.20;99.90;;;;;;5068912;28;19916;-61
2023/02/10 07:52:52;;;;;;;;;;;0.20;99.90;;;;;;5067711;28;19913;-61
2023/02/10 07:55:18;;;;;;;;;;;0.30;99.90;;;;;;5064950;28;19970;-60
2023/02/10 07:57:44;;;;;;;;;;;0.30;99.90;;;;;;5065718;28;19916;-61
2023/02/10 08:00:12;;;;;;;;;;;0.40;99.90;;;;;;5069756;28;19923;-61
2023/02/10 08:02:37;;;;;;;;;;;0.40;99.90;;;;;;5069985;28;19982;-61
2023/02/10 08:05:03;;;;;;;;;;;0.50;99.90;;;;;;5068940;28;20378;-60
2023/02/10 08:07:28;;;;;;;;;;;0.40;99.90;;;;;;5066644;28;19917;-61
2023/02/10 08:09:54;;;;;;;;;;;0.40;99.90;;;;;;5066635;28;19920;-62
2023/02/10 08:12:19;;;;;;;;;;;0.50;99.90;;;;;;5070617;28;20464;-62
2023/02/10 08:14:45;;;;;;;;;;;0.50;99.90;;;;;;5067091;28;19943;-61
2023/02/10 08:17:10;;;;;;;;;;;0.50;99.90;;;;;;5069265;28;19912;-62
2023/02/10 08:19:36;;;;;;;;;;;0.50;99.90;;;;;;5072120;28;19965;-61
2023/02/10 08:22:02;;;;;;;;;;;0.60;99.90;;;;;;5073313;28;19966;-60
2023/02/10 08:24:28;;;;;;;;;;;0.70;99.90;;;;;;5068678;28;19919;-62
2023/02/10 08:26:53;;;;;;;;;;;0.80;99.90;;;;;;5070784;28;19916;-61
2023/02/10 08:29:19;;;;;;;;;;;0.80;99.90;;;;;;5073189;28;19912;-61
2023/02/10 08:31:44;;;;;;;;;;;0.90;99.90;;;;;;5068501;28;19952;-59
2023/02/10 08:34:13;;;;;;;;;;;1.00;99.90;;;;;;5074255;28;20403;-59
2023/02/10 08:36:38;;;;;;;;;;;1.00;99.90;;;;;;5071254;28;19920;-61
2023/02/10 08:39:03;;;;;;;;;;;1.10;99.90;;;;;;5071230;28;19935;-61
2023/02/10 08:41:30;;;;;;;;;;;1.10;99.90;;;;;;5069832;28;20010;-60
2023/02/10 08:43:57;;;;;;;;;;;1.10;99.90;;;;;;5073231;28;19908;-60
2023/02/10 08:46:22;;;;;;;;;;;1.20;99.90;;;;;;5068674;28;20617;-60
2023/02/10 08:48:48;;;;;;;;;;;1.20;99.90;;;;;;5067943;28;20011;-61
2023/02/10 08:51:15;;;;;;;;;;;1.30;99.90;;;;;;5069995;28;19913;-61
2023/02/10 08:53:40;;;;;;;;;;;1.50;99.90;;;;;;5069174;28;19916;-61
2023/02/10 08:56:11;;;;;;;;;;;1.60;99.90;;;;;;5068600;28;19919;-60
2023/02/10 08:58:36;;;;;;;;;;;1.70;99.90;;;;;;5067029;28;19989;-59
2023/02/10 09:01:07;;;;;;;;;;;1.80;99.90;;;;;;5071276;28;19959;-59
2023/02/10 09:03:33;;;;;;;;;;;1.90;99.90;;;;;;5071943;28;19940;-61
2023/02/10 09:05:58;;;;;;;;;;;2.00;99.90;;;;;;5071078;28;20622;-61
2023/02/10 09:08:24;;;;;;;;;;;2.10;99.90;;;;;;5070675;28;20003;-61
2023/02/10 09:10:50;;;;;;;;;;;2.20;99.90;;;;;;5070413;28;20245;-61
2023/02/10 09:13:15;;;;;;;;;;;2.30;99.90;;;;;;5066523;28;20397;-61
2023/02/10 09:15:41;;;;;;;;;;;2.30;99.90;;;;;;5068890;28;19916;-61
2023/02/10 09:18:07;;;;;;;;;;;2.40;99.90;;;;;;5070244;28;19958;-61
2023/02/10 09:20:33;;;;;;;;;;;2.60;99.90;;;;;;5070549;28;19920;-57
2023/02/10 09:22:59;;;;;;;;;;;2.70;99.90;;;;;;5071079;28;20399;-59
2023/02/10 09:25:24;;;;;;;;;;;2.80;99.90;;;;;;5070544;28;19913;-62
2023/02/10 09:27:51;;;;;;;;;;;2.90;99.90;;;;;;5071599;28;20007;-61
2023/02/10 09:30:16;;;;;;;;;;;3.00;99.90;;;;;;5068749;28;19966;-61
2023/02/10 09:32:42;;;;;;;;;;;3.20;99.90;;;;;;5070007;28;20117;-61
2023/02/10 09:35:07;;;;;;;;;;;3.30;99.90;;;;;;5064759;28;19916;-61
2023/02/10 09:37:33;;;;;;;;;;;3.30;99.90;;;;;;5057094;28;20349;-61
2023/02/10 09:39:58;;;;;;;;;;;3.50;99.90;;;;;;5068170;28;20359;-61
2023/02/10 09:42:29;;;;;;;;;;;3.70;99.90;;;;;;5071150;28;19919;-59
2023/02/10 09:45:13;;;;;;;;;;;3.80;99.90;;;;;;5068746;28;19966;-58
2023/02/10 09:47:44;;;;;;;;;;;4.00;99.90;;;;;;5070732;28;19967;-60
2023/02/10 09:50:25;;;;;;;;;;;4.20;99.90;;;;;;5068283;28;19966;-59
2023/02/10 09:52:56;;;;;;;;;;;4.20;99.90;;;;;;5069002;28;20349;-61
2023/02/10 09:55:26;;;;;;;;;;;4.40;99.90;;;;;;5070469;28;19916;-61
2023/02/10 09:57:56;;;;;;;;;;;4.50;99.90;;;;;;5071460;28;19959;-61
2023/02/10 10:00:28;;;;;;;;;;;4.70;99.90;;;;;;5070843;28;19912;-61
2023/02/10 10:02:54;;;;;;;;;;;4.80;99.90;;;;;;5066422;28;19912;-61
2023/02/10 10:05:38;;;;;;;;;;;4.90;99.90;;;;;;5066328;28;19920;-61
2023/02/10 10:08:08;;;;;;;;;;;5.00;99.90;;;;;;5069724;28;19970;-61
2023/02/10 10:10:40;;;;;;;;;;;5.10;99.90;;;;;;5070139;28;19931;-59
2023/02/10 10:13:18;;;;;;;;;;;5.20;99.90;;;;;;5069755;28;19917;-59
2023/02/10 10:15:47;;;;;;;;;;;5.30;99.90;;;;;;5064042;28;19951;-60
2023/02/10 10:18:21;;;;;;;;;;;5.40;99.90;;;;;;5069032;28;19909;-61
2023/02/10 10:21:00;;;;;;;;;;;5.50;99.90;;;;;;5058950;28;19963;-61
2023/02/10 10:23:35;;;;;;;;;;;5.70;99.90;;;;;;5061982;28;20558;-61
2023/02/10 10:26:12;;;;;;;;;;;5.90;99.90;;;;;;5066067;28;20453;-61
2023/02/10 10:28:44;;;;;;;;;;;6.00;99.90;;;;;;5067097;28;20364;-61
2023/02/10 10:31:28;;;;;;;;;;;6.10;99.90;;;;;;5069165;28;19936;-61
2023/02/10 10:33:55;;;;;;;;;;;6.20;99.90;;;;;;5063928;28;19924;-61
2023/02/10 10:36:22;;;;;;;;;;;6.40;99.90;;;;;;5064029;28;19923;-61
2023/02/10 10:38:53;;;;;;;;;;;6.50;99.90;;;;;;5066139;28;20426;-61
2023/02/10 10:41:20;;;;;;;;;;;6.50;99.90;;;;;;5066282;28;19921;-61
2023/02/10 10:43:50;;;;;;;;;;;6.60;99.90;;;;;;5063331;28;19962;-62
2023/02/10 10:46:23;;;;;;;;;;;6.70;99.90;;;;;;5066484;28;19962;-61
2023/02/10 10:48:49;;;;;;;;;;;6.80;99.90;;;;;;5063195;28;19916;-61
2023/02/10 10:51:14;;;;;;;;;;;7.10;99.90;;;;;;5066997;28;19974;-60
2023/02/10 10:53:40;;;;;;;;;;;7.10;99.90;;;;;;5064131;28;19917;-61
2023/02/10 10:56:08;;;;;;;;;;;7.10;99.90;;;;;;5067502;28;19917;-61
2023/02/10 10:58:38;;;;;;;;;;;7.00;99.90;;;;;;5068508;28;19913;-61
2023/02/10 11:01:05;;;;;;;;;;;6.80;99.90;;;;;;5067173;28;19917;-61
2023/02/10 11:03:31;;;;;;;;;;;6.80;99.90;;;;;;5066405;28;20377;-61
2023/02/10 11:05:58;;;;;;;;;;;6.80;99.90;;;;;;5067366;28;19977;-61
2023/02/10 11:08:25;;;;;;;;;;;6.90;99.90;;;;;;5063206;28;19916;-61
2023/02/10 11:10:53;;;;;;;;;;;7.00;99.90;;;;;;5068723;28;19916;-61
2023/02/10 11:13:20;;;;;;;;;;;7.10;99.90;;;;;;5064539;28;20347;-60
2023/02/10 11:15:45;;;;;;;;;;;7.20;99.90;;;;;;5068930;28;20289;-59
2023/02/10 11:18:17;;;;;;;;;;;7.20;99.90;;;;;;5065247;28;19913;-60
2023/02/10 11:20:51;;;;;;;;;;;7.40;99.90;;;;;;5061597;28;19924;-59
2023/02/10 11:23:17;;;;;;;;;;;7.70;99.90;;;;;;5068492;22;19924;-63
2023/02/10 11:25:46;;;;;;;;;;;7.90;99.90;;;;;;5029200;28;19924;-64
2023/02/10 11:28:19;;;;;;;;;;;7.70;99.90;;;;;;5048582;28;20015;-63
2023/02/10 11:30:46;;;;;;;;;;;7.70;99.90;;;;;;5041917;28;19921;-65
2023/02/10 11:33:20;;;;;;;;;;;7.80;99.90;;;;;;5041766;28;19913;-64
2023/02/10 11:35:58;;;;;;;;;;;8.00;99.90;;;;;;5044713;28;19962;-63
2023/02/10 11:38:24;;;;;;;;;;;8.20;99.90;;;;;;5042745;28;19921;-64
2023/02/10 11:40:54;;;;;;;;;;;8.30;99.90;;;;;;5042633;28;19917;-64
2023/02/10 11:43:22;;;;;;;;;;;8.40;99.90;;;;;;5040964;28;19913;-64
2023/02/10 11:45:55;;;;;;;;;;;8.40;99.90;;;;;;5038950;28;19920;-64
2023/02/10 11:48:22;;;;;;;;;;;8.20;99.90;;;;;;5040298;28;20291;-65
2023/02/10 11:50:47;;;;;;;;;;;8.30;99.90;;;;;;5035606;28;20007;-63
2023/02/10 11:53:23;;;;;;;;;;;8.30;99.90;;;;;;5035148;28;20054;-62
2023/02/10 11:55:58;;;;;;;;;;;8.50;99.90;;;;;;5024358;28;19917;-64
2023/02/10 11:59:03;;;;;;;;;;;8.60;99.90;;;;;;5049720;28;19931;-64
2023/02/10 12:01:34;;;;;;;;;;;8.50;99.90;;;;;;5039719;28;19921;-64
2023/02/10 12:04:02;;;;;;;;;;;8.60;99.90;;;;;;5050881;28;20570;-62
2023/02/10 12:06:51;;;;;;;;;;;8.60;99.90;;;;;;5040970;28;19917;-64
2023/02/10 12:09:35;;;;;;;;;;;8.40;99.90;;;;;;5040949;28;20956;-65
2023/02/10 12:12:04;;;;;;;;;;;8.20;99.90;;;;;;5040523;28;19913;-63
2023/02/10 12:14:44;;;;;;;;;;;8.20;99.90;;;;;;5042849;28;19924;-64
2023/02/10 12:17:20;;;;;;;;;;;8.10;99.90;;;;;;5036707;28;19913;-64
2023/02/10 12:19:59;;;;;;;;;;;8.10;99.90;;;;;;5040066;28;20015;-63
2023/02/10 12:22:41;;;;;;;;;;;8.00;99.90;;;;;;5039021;28;20003;-61
2023/02/10 12:25:16;;;;;;;;;;;8.10;99.90;;;;;;5041086;28;19960;-62
2023/02/10 12:27:46;;;;;;;;;;;8.10;99.90;;;;;;5047188;28;19916;-62
2023/02/10 12:30:21;;;;;;;;;;;8.40;99.90;;;;;;5041755;28;20375;-65
2023/02/10 12:32:50;;;;;;;;;;;8.50;99.90;;;;;;5046832;28;19909;-64
2023/02/10 12:35:26;;;;;;;;;;;8.70;99.90;;;;;;5037898;28;20426;-65
2023/02/10 12:38:10;;;;;;;;;;;8.70;99.90;;;;;;5046724;28;20282;-64
2023/02/10 12:40:43;;;;;;;;;;;8.90;99.90;;;;;;5039388;28;19917;-64
2023/02/10 12:43:16;;;;;;;;;;;9.30;99.90;;;;;;5044639;28;19912;-62
2023/02/10 12:45:54;;;;;;;;;;;9.60;99.90;;;;;;5042933;28;19999;-63
2023/02/10 12:48:31;;;;;;;;;;;9.90;99.90;;;;;;5042023;28;20286;-63
2023/02/10 12:51:15;;;;;;;;;;;9.70;99.90;;;;;;5042866;28;19921;-63
2023/02/10 12:53:44;;;;;;;;;;;9.50;99.90;;;;;;5042102;28;19999;-65
2023/02/10 12:56:13;;;;;;;;;;;9.80;99.90;;;;;;5041987;28;19917;-64
2023/02/10 12:58:40;;;;;;;;;;;9.90;99.90;;;;;;5045550;28;19913;-64
2023/02/10 13:01:10;;;;;;;;;;;10.10;99.90;;;;;;5044028;28;19932;-64
2023/02/10 13:03:37;;;;;;;;;;;10.00;99.90;;;;;;5045463;28;20016;-64
2023/02/10 13:06:14;;;;;;;;;;;10.00;99.90;;;;;;5048362;28;19948;-65
2023/02/10 13:08:43;;;;;;;;;;;10.30;99.90;;;;;;5042645;28;20298;-64
2023/02/10 13:11:19;;;;;;;;;;;10.50;99.90;;;;;;5040668;28;20374;-64
2023/02/10 13:13:46;;;;;;;;;;;10.40;99.90;;;;;;5043059;28;19917;-65
2023/02/10 13:16:20;;;;;;;;;;;10.40;99.90;;;;;;5045433;28;20358;-64
2023/02/10 13:18:52;;;;;;;;;;;10.20;99.90;;;;;;5039676;28;19917;-66
2023/02/10 13:21:22;;;;;;;;;;;10.20;99.90;;;;;;5042835;28;19982;-65
2023/02/10 13:23:51;;;;;;;;;;;10.00;99.90;;;;;;5043882;28;19920;-64
2023/02/10 13:26:35;;;;;;;;;;;10.20;99.90;;;;;;5041824;28;19913;-65
2023/02/10 13:29:09;;;;;;;;;;;10.00;99.90;;;;;;5046828;28;19913;-65
2023/02/10 13:31:45;;;;;;;;;;;10.20;99.90;;;;;;5042424;28;20582;-65
2023/02/10 13:34:46;;;;;;;;;;;10.30;99.90;;;;;;5040382;28;19920;-63
2023/02/10 13:37:15;;;;;;;;;;;10.40;99.90;;;;;;4998652;28;19921;-63
2023/02/10 13:39:48;;;;;;;;;;;10.10;99.90;;;;;;5036294;28;19913;-62
2023/02/10 13:42:22;;;;;;;;;;;10.10;99.90;;;;;;5044652;28;19921;-63
2023/02/10 13:44:56;;;;;;;;;;;10.20;99.90;;;;;;5043863;28;19913;-63
2023/02/10 13:47:48;;;;;;;;;;;10.30;99.90;;;;;;5034389;28;19913;-63
2023/02/10 13:50:13;;;;;;;;;;;10.30;99.90;;;;;;5040269;28;19913;-63
2023/02/10 13:52:54;;;;;;;;;;;10.50;99.90;;;;;;5039634;28;19913;-62
2023/02/10 13:55:19;;;;;;;;;;;10.30;99.90;;;;;;5047903;28;19924;-64
2023/02/10 13:57:56;;;;;;;;;;;10.10;99.90;;;;;;5035763;28;19921;-64
2023/02/10 14:00:24;;;;;;;;;;;9.90;99.90;;;;;;5042030;28;20393;-64
2023/02/10 14:03:21;;;;;;;;;;;9.90;99.90;;;;;;5044511;28;20003;-64
2023/02/10 14:05:50;;;;;;;;;;;9.80;99.90;;;;;;5014921;28;19916;-65
2023/02/10 14:08:27;;;;;;;;;;;9.80;99.90;;;;;;5042388;28;19924;-65
2023/02/10 14:10:57;;;;;;;;;;;9.70;99.90;;;;;;5020147;28;19917;-62
2023/02/10 14:13:25;;;;;;;;;;;9.50;99.90;;;;;;5044375;28;19913;-67
2023/02/10 14:16:05;;;;;;;;;;;9.20;99.90;;;;;;5038974;28;20027;-64
2023/02/10 14:18:32;;;;;;;;;;;9.20;99.90;;;;;;5041131;28;19912;-64
2023/02/10 14:21:02;;;;;;;;;;;9.20;99.90;;;;;;5039579;28;20289;-64
2023/02/10 14:23:29;;;;;;;;;;;9.20;99.90;;;;;;5030581;28;19924;-64
2023/02/10 14:25:56;;;;;;;;;;;9.20;99.90;;;;;;5031043;28;19951;-63
2023/02/10 14:28:23;;;;;;;;;;;9.30;99.90;;;;;;5036996;28;19920;-64
2023/02/10 14:30:53;;;;;;;;;;;9.30;99.90;;;;;;5040310;28;19917;-64
2023/02/10 14:33:21;;;;;;;;;;;9.30;99.90;;;;;;5039538;28;19921;-62
2023/02/10 14:35:50;;;;;;;;;;;9.20;99.90;;;;;;5039012;28;20406;-63
2023/02/10 14:38:20;;;;;;;;;;;9.00;99.90;;;;;;5043188;28;19928;-64
2023/02/10 14:40:45;;;;;;;;;;;9.00;99.90;;;;;;5043693;28;19921;-64